sensor_id;sensor_type;location;lat;lon;timestamp;temperature;humidity
2477;DHT22;1249;51.270;6.756;2023-04-15T00:01:57;14.30;99.90
2477;DHT22;1249;51.270;6.756;2023-04-15T00:04:24;14.30;99.90
2477;DHT22;1249;51.270;6.756;2023-04-15T00:06:52;14.20;99.90
2477;DHT22;1249;51.270;6.756;2023-04-15T00:09:19;14.20;99.90
2477;DHT22;1249;51.270;6.756;2023-04-15T00:11:46;14.20;99.90
2477;DHT22;1249;51.270;6.756;2023-04-15T00:14:12;14.20;99.90
2477;DHT22;1249;51.270;6.756;2023-04-15T00:16:38;14.20;99.90
2477;DHT22;1249;51.270;6.756;2023-04-15T00:19:03;14.10;99.90
2477;DHT22;1249;51.270;6.756;2023-04-15T00:21:29;14.10;99.90
2477;DHT22;1249;51.270;6.756;2023-04-15T00:23:55;14.10;99.90
2477;DHT22;1249;51.270;6.756;2023-04-15T00:26:21;14.10;99.90
2477;DHT22;1249;51.270;6.756;2023-04-15T00:28:49;14.00;99.90
2477;DHT22;1249;51.270;6.756;2023-04-15T00:31:15;14.00;99.90
2477;DHT22;1249;51.270;6.756;2023-04-15T00:33:40;13.90;99.90
2477;DHT22;1249;51.270;6.756;2023-04-15T00:36:06;13.90;99.90
2477;DHT22;1249;51.270;6.756;2023-04-15T00:38:32;13.90;99.90
2477;DHT22;1249;51.270;6.756;2023-04-15T00:40:58;13.90;99.90
2477;DHT22;1249;51.270;6.756;2023-04-15T00:43:24;13.80;99.90
2477;DHT22;1249;51.270;6.756;2023-04-15T00:45:52;13.80;99.90
2477;DHT22;1249;51.270;6.756;2023-04-15T00:48:19;13.80;99.90
2477;DHT22;1249;51.270;6.756;2023-04-15T00:50:45;13.70;99.90
2477;DHT22;1249;51.270;6.756;2023-04-15T00:53:10;13.70;99.90
2477;DHT22;1249;51.270;6.756;2023-04-15T00:55:36;13.70;99.90
2477;DHT22;1249;51.270;6.756;2023-04-15T00:58:02;13.70;99.90
2477;DHT22;1249;51.270;6.756;2023-04-15T01:00:28;13.70;99.90
2477;DHT22;1249;51.270;6.756;2023-04-15T01:02:54;13.60;99.90
2477;DHT22;1249;51.270;6.756;2023-04-15T01:05:20;13.60;99.90
2477;DHT22;1249;51.270;6.756;2023-04-15T01:07:46;13.60;99.90
2477;DHT22;1249;51.270;6.756;2023-04-15T01:10:12;13.50;99.90
2477;DHT22;1249;51.270;6.756;2023-04-15T01:12:38;13.60;99.90
2477;DHT22;1249;51.270;6.756;2023-04-15T01:15:04;13.50;99.90
2477;DHT22;1249;51.270;6.756;2023-04-15T01:17:30;13.50;99.90
2477;DHT22;1249;51.270;6.756;2023-04-15T01:19:55;13.50;99.90
2477;DHT22;1249;51.270;6.756;2023-04-15T01:22:25;13.40;99.90
2477;DHT22;1249;51.270;6.756;2023-04-15T01:25:12;13.50;99.90
2477;DHT22;1249;51.270;6.756;2023-04-15T01:27:40;13.40;99.90
2477;DHT22;1249;51.270;6.756;2023-04-15T01:30:07;13.40;99.90
2477;DHT22;1249;51.270;6.756;2023-04-15T01:32:36;13.30;99.90
2477;DHT22;1249;51.270;6.756;2023-04-15T01:35:02;13.30;99.90
2477;DHT22;1249;51.270;6.756;2023-04-15T01:37:28;13.30;99.90
2477;DHT22;1249;51.270;6.756;2023-04-15T01:39:54;13.30;99.90
2477;DHT22;1249;51.270;6.756;2023-04-15T01:42:21;13.20;99.90
2477;DHT22;1249;51.270;6.756;2023-04-15T01:44:47;13.20;99.90
2477;DHT22;1249;51.270;6.756;2023-04-15T01:47:12;13.20;99.90
2477;DHT22;1249;51.270;6.756;2023-04-15T01:49:38;13.20;99.90
2477;DHT22;1249;51.270;6.756;2023-04-15T01:52:04;13.20;99.90
2477;DHT22;1249;51.270;6.756;2023-04-15T01:54:29;13.10;99.90
2477;DHT22;1249;51.270;6.756;2023-04-15T01:56:55;13.10;99.90
2477;DHT22;1249;51.270;6.756;2023-04-15T01:59:21;13.10;99.90
2477;DHT22;1249;51.270;6.756;2023-04-15T02:01:47;13.10;99.90
2477;DHT22;1249;51.270;6.756;2023-04-15T02:04:12;13.20;99.90
2477;DHT22;1249;51.270;6.756;2023-04-15T02:06:44;13.00;99.90
2477;DHT22;1249;51.270;6.756;2023-04-15T02:09:10;12.90;99.90
2477;DHT22;1249;51.270;6.756;2023-04-15T02:11:36;12.90;99.90
2477;DHT22;1249;51.270;6.756;2023-04-15T02:14:02;13.00;99.90
2477;DHT22;1249;51.270;6.756;2023-04-15T02:16:31;12.90;99.90
2477;DHT22;1249;51.270;6.756;2023-04-15T02:18:59;12.90;99.90
2477;DHT22;1249;51.270;6.756;2023-04-15T02:21:25;12.90;99.90
2477;DHT22;1249;51.270;6.756;2023-04-15T02:23:51;12.90;99.90
2477;DHT22;1249;51.270;6.756;2023-04-15T02:26:18;12.80;99.90
2477;DHT22;1249;51.270;6.756;2023-04-15T02:28:45;12.90;99.90
2477;DHT22;1249;51.270;6.756;2023-04-15T02:31:10;12.70;99.90
2477;DHT22;1249;51.270;6.756;2023-04-15T02:33:36;12.70;99.90
2477;DHT22;1249;51.270;6.756;2023-04-15T02:36:02;12.80;99.90
2477;DHT22;1249;51.270;6.756;2023-04-15T02:38:28;12.70;99.90
2477;DHT22;1249;51.270;6.756;2023-04-15T02:40:53;12.80;99.90
2477;DHT22;1249;51.270;6.756;2023-04-15T02:43:19;12.70;99.90
2477;DHT22;1249;51.270;6.756;2023-04-15T02:45:45;12.70;99.90
2477;DHT22;1249;51.270;6.756;2023-04-15T02:48:11;12.70;99.90
2477;DHT22;1249;51.270;6.756;2023-04-15T02:50:37;12.60;99.90
2477;DHT22;1249;51.270;6.756;2023-04-15T02:53:06;12.60;99.90
2477;DHT22;1249;51.270;6.756;2023-04-15T02:55:31;12.60;99.90
2477;DHT22;1249;51.270;6.756;2023-04-15T02:57:57;12.60;99.90
2477;DHT22;1249;51.270;6.756;2023-04-15T03:00:25;12.50;99.90
2477;DHT22;1249;51.270;6.756;2023-04-15T03:02:50;12.50;99.90
2477;DHT22;1249;51.270;6.756;2023-04-15T03:05:21;12.60;99.90
2477;DHT22;1249;51.270;6.756;2023-04-15T03:07:49;12.50;99.90
2477;DHT22;1249;51.270;6.756;2023-04-15T03:10:14;12.40;99.90
2477;DHT22;1249;51.270;6.756;2023-04-15T03:12:40;12.40;99.90
2477;DHT22;1249;51.270;6.756;2023-04-15T03:15:06;12.40;99.90
2477;DHT22;1249;51.270;6.756;2023-04-15T03:17:32;12.40;99.90
2477;DHT22;1249;51.270;6.756;2023-04-15T03:19:58;12.40;99.90
2477;DHT22;1249;51.270;6.756;2023-04-15T03:22:23;12.40;99.90
2477;DHT22;1249;51.270;6.756;2023-04-15T03:24:50;12.30;99.90
2477;DHT22;1249;51.270;6.756;2023-04-15T03:27:16;12.40;99.90
2477;DHT22;1249;51.270;6.756;2023-04-15T03:29:41;12.30;99.90
2477;DHT22;1249;51.270;6.756;2023-04-15T03:32:07;12.30;99.90
2477;DHT22;1249;51.270;6.756;2023-04-15T03:34:33;12.30;99.90
2477;DHT22;1249;51.270;6.756;2023-04-15T03:36:58;12.30;99.90
2477;DHT22;1249;51.270;6.756;2023-04-15T03:39:24;12.30;99.90
2477;DHT22;1249;51.270;6.756;2023-04-15T03:41:49;12.20;99.90
2477;DHT22;1249;51.270;6.756;2023-04-15T03:44:15;12.20;99.90
2477;DHT22;1249;51.270;6.756;2023-04-15T03:46:40;12.30;99.90
2477;DHT22;1249;51.270;6.756;2023-04-15T03:49:06;12.20;99.90
2477;DHT22;1249;51.270;6.756;2023-04-15T03:51:32;12.20;99.90
2477;DHT22;1249;51.270;6.756;2023-04-15T03:53:57;12.20;99.90
2477;DHT22;1249;51.270;6.756;2023-04-15T03:56:23;12.10;99.90
2477;DHT22;1249;51.270;6.756;2023-04-15T03:58:49;12.20;99.90
2477;DHT22;1249;51.270;6.756;2023-04-15T04:01:15;12.10;99.90
2477;DHT22;1249;51.270;6.756;2023-04-15T04:03:41;12.10;99.90
2477;DHT22;1249;51.270;6.756;2023-04-15T04:06:06;12.10;99.90
2477;DHT22;1249;51.270;6.756;2023-04-15T04:08:32;12.10;99.90
2477;DHT22;1249;51.270;6.756;2023-04-15T04:10:58;12.10;99.90
2477;DHT22;1249;51.270;6.756;2023-04-15T04:13:24;12.00;99.90
2477;DHT22;1249;51.270;6.756;2023-04-15T04:15:50;12.00;99.90
2477;DHT22;1249;51.270;6.756;2023-04-15T04:18:15;12.00;99.90
2477;DHT22;1249;51.270;6.756;2023-04-15T04:20:41;12.00;99.90
2477;DHT22;1249;51.270;6.756;2023-04-15T04:23:06;12.00;99.90
2477;DHT22;1249;51.270;6.756;2023-04-15T04:25:32;12.00;99.90
2477;DHT22;1249;51.270;6.756;2023-04-15T04:27:58;12.00;99.90
2477;DHT22;1249;51.270;6.756;2023-04-15T04:30:23;12.00;99.90
2477;DHT22;1249;51.270;6.756;2023-04-15T04:32:49;11.90;99.90
2477;DHT22;1249;51.270;6.756;2023-04-15T04:35:15;11.90;99.90
2477;DHT22;1249;51.270;6.756;2023-04-15T04:37:41;11.90;99.90
2477;DHT22;1249;51.270;6.756;2023-04-15T04:40:07;11.90;99.90
2477;DHT22;1249;51.270;6.756;2023-04-15T04:42:33;11.80;99.90
2477;DHT22;1249;51.270;6.756;2023-04-15T04:44:59;11.90;99.90
2477;DHT22;1249;51.270;6.756;2023-04-15T04:47:25;11.80;99.90
2477;DHT22;1249;51.270;6.756;2023-04-15T04:49:50;11.80;99.90
2477;DHT22;1249;51.270;6.756;2023-04-15T04:52:16;11.80;99.90
2477;DHT22;1249;51.270;6.756;2023-04-15T04:54:41;11.80;99.90
2477;DHT22;1249;51.270;6.756;2023-04-15T04:57:07;11.80;99.90
2477;DHT22;1249;51.270;6.756;2023-04-15T04:59:32;11.80;99.90
2477;DHT22;1249;51.270;6.756;2023-04-15T05:01:58;11.80;99.90
2477;DHT22;1249;51.270;6.756;2023-04-15T05:04:24;11.80;99.90
2477;DHT22;1249;51.270;6.756;2023-04-15T05:06:49;11.80;99.90
2477;DHT22;1249;51.270;6.756;2023-04-15T05:09:15;11.80;99.90
2477;DHT22;1249;51.270;6.756;2023-04-15T05:11:40;11.80;99.90
2477;DHT22;1249;51.270;6.756;2023-04-15T05:14:06;11.80;99.90
2477;DHT22;1249;51.270;6.756;2023-04-15T05:16:31;11.80;99.90
2477;DHT22;1249;51.270;6.756;2023-04-15T05:18:57;11.80;99.90
2477;DHT22;1249;51.270;6.756;2023-04-15T05:21:23;11.90;99.90
2477;DHT22;1249;51.270;6.756;2023-04-15T05:23:52;11.80;99.90
2477;DHT22;1249;51.270;6.756;2023-04-15T05:26:17;11.80;99.90
2477;DHT22;1249;51.270;6.756;2023-04-15T05:28:43;11.80;99.90
2477;DHT22;1249;51.270;6.756;2023-04-15T05:31:10;11.90;99.90
2477;DHT22;1249;51.270;6.756;2023-04-15T05:33:35;11.80;99.90
2477;DHT22;1249;51.270;6.756;2023-04-15T05:36:01;11.80;99.90
2477;DHT22;1249;51.270;6.756;2023-04-15T05:38:27;12.20;99.90
2477;DHT22;1249;51.270;6.756;2023-04-15T05:40:52;12.60;99.90
2477;DHT22;1249;51.270;6.756;2023-04-15T05:43:18;12.90;99.90
2477;DHT22;1249;51.270;6.756;2023-04-15T05:45:43;13.20;99.90
2477;DHT22;1249;51.270;6.756;2023-04-15T05:48:09;13.50;99.90
2477;DHT22;1249;51.270;6.756;2023-04-15T05:50:35;13.70;99.90
2477;DHT22;1249;51.270;6.756;2023-04-15T05:53:00;13.80;99.90
2477;DHT22;1249;51.270;6.756;2023-04-15T05:55:26;14.00;99.90
2477;DHT22;1249;51.270;6.756;2023-04-15T05:57:51;14.20;99.90
2477;DHT22;1249;51.270;6.756;2023-04-15T06:00:17;14.40;99.90
2477;DHT22;1249;51.270;6.756;2023-04-15T06:02:43;14.60;99.90
2477;DHT22;1249;51.270;6.756;2023-04-15T06:05:08;14.70;99.90
2477;DHT22;1249;51.270;6.756;2023-04-15T06:07:36;14.80;99.90
2477;DHT22;1249;51.270;6.756;2023-04-15T06:10:02;15.00;99.90
2477;DHT22;1249;51.270;6.756;2023-04-15T06:12:28;15.00;99.90
2477;DHT22;1249;51.270;6.756;2023-04-15T06:14:54;15.10;99.90
2477;DHT22;1249;51.270;6.756;2023-04-15T06:17:20;15.10;99.90
2477;DHT22;1249;51.270;6.756;2023-04-15T06:19:45;15.20;99.90
2477;DHT22;1249;51.270;6.756;2023-04-15T06:22:11;15.30;99.90
2477;DHT22;1249;51.270;6.756;2023-04-15T06:24:36;15.30;99.90
2477;DHT22;1249;51.270;6.756;2023-04-15T06:27:02;15.30;99.90
2477;DHT22;1249;51.270;6.756;2023-04-15T06:29:28;15.30;99.90
2477;DHT22;1249;51.270;6.756;2023-04-15T06:31:53;15.30;99.90
2477;DHT22;1249;51.270;6.756;2023-04-15T06:34:20;15.40;99.90
2477;DHT22;1249;51.270;6.756;2023-04-15T06:36:46;15.40;99.90
2477;DHT22;1249;51.270;6.756;2023-04-15T06:39:12;15.40;99.90
2477;DHT22;1249;51.270;6.756;2023-04-15T06:41:38;15.50;99.90
2477;DHT22;1249;51.270;6.756;2023-04-15T06:44:03;15.50;99.90
2477;DHT22;1249;51.270;6.756;2023-04-15T06:46:29;15.60;99.90
2477;DHT22;1249;51.270;6.756;2023-04-15T06:48:55;15.60;99.90
2477;DHT22;1249;51.270;6.756;2023-04-15T06:51:21;15.70;99.90
2477;DHT22;1249;51.270;6.756;2023-04-15T06:53:48;15.80;99.90
2477;DHT22;1249;51.270;6.756;2023-04-15T06:56:13;15.90;99.90
2477;DHT22;1249;51.270;6.756;2023-04-15T06:58:39;16.00;99.90
2477;DHT22;1249;51.270;6.756;2023-04-15T07:01:04;16.10;99.90
2477;DHT22;1249;51.270;6.756;2023-04-15T07:03:31;16.10;99.90
2477;DHT22;1249;51.270;6.756;2023-04-15T07:05:56;16.20;99.90
2477;DHT22;1249;51.270;6.756;2023-04-15T07:08:23;16.40;99.90
2477;DHT22;1249;51.270;6.756;2023-04-15T07:10:48;16.50;99.90
2477;DHT22;1249;51.270;6.756;2023-04-15T07:13:14;16.60;99.90
2477;DHT22;1249;51.270;6.756;2023-04-15T07:15:40;16.70;99.90
2477;DHT22;1249;51.270;6.756;2023-04-15T07:18:05;16.80;99.90
2477;DHT22;1249;51.270;6.756;2023-04-15T07:20:31;16.90;99.90
2477;DHT22;1249;51.270;6.756;2023-04-15T07:22:56;17.00;99.90
2477;DHT22;1249;51.270;6.756;2023-04-15T07:25:22;17.00;99.90
2477;DHT22;1249;51.270;6.756;2023-04-15T07:27:48;17.00;99.90
2477;DHT22;1249;51.270;6.756;2023-04-15T07:30:14;17.10;99.90
2477;DHT22;1249;51.270;6.756;2023-04-15T07:32:41;17.10;99.90
2477;DHT22;1249;51.270;6.756;2023-04-15T07:35:08;17.20;99.90
2477;DHT22;1249;51.270;6.756;2023-04-15T07:37:34;17.20;99.90
2477;DHT22;1249;51.270;6.756;2023-04-15T07:40:00;17.30;99.90
2477;DHT22;1249;51.270;6.756;2023-04-15T07:42:26;17.30;99.90
2477;DHT22;1249;51.270;6.756;2023-04-15T07:44:51;17.40;99.90
2477;DHT22;1249;51.270;6.756;2023-04-15T07:47:17;17.50;99.90
2477;DHT22;1249;51.270;6.756;2023-04-15T07:49:42;17.50;99.90
2477;DHT22;1249;51.270;6.756;2023-04-15T07:52:08;17.50;99.90
2477;DHT22;1249;51.270;6.756;2023-04-15T07:54:34;17.50;99.90
2477;DHT22;1249;51.270;6.756;2023-04-15T07:57:00;17.50;99.90
2477;DHT22;1249;51.270;6.756;2023-04-15T07:59:25;17.50;99.90
2477;DHT22;1249;51.270;6.756;2023-04-15T08:01:54;17.50;99.90
2477;DHT22;1249;51.270;6.756;2023-04-15T08:04:19;17.50;99.90
2477;DHT22;1249;51.270;6.756;2023-04-15T08:06:45;17.50;99.90
2477;DHT22;1249;51.270;6.756;2023-04-15T08:09:12;17.50;99.90
2477;DHT22;1249;51.270;6.756;2023-04-15T08:11:38;17.40;98.90
2477;DHT22;1249;51.270;6.756;2023-04-15T08:14:03;17.40;98.00
2477;DHT22;1249;51.270;6.756;2023-04-15T08:16:29;17.40;96.90
2477;DHT22;1249;51.270;6.756;2023-04-15T08:18:55;17.50;96.20
2477;DHT22;1249;51.270;6.756;2023-04-15T08:21:21;17.60;96.10
2477;DHT22;1249;51.270;6.756;2023-04-15T08:23:48;17.70;96.00
2477;DHT22;1249;51.270;6.756;2023-04-15T08:26:14;17.80;96.00
2477;DHT22;1249;51.270;6.756;2023-04-15T08:28:41;17.90;96.30
2477;DHT22;1249;51.270;6.756;2023-04-15T08:31:07;18.00;96.20
2477;DHT22;1249;51.270;6.756;2023-04-15T08:33:33;18.10;96.50
2477;DHT22;1249;51.270;6.756;2023-04-15T08:35:59;18.10;96.80
2477;DHT22;1249;51.270;6.756;2023-04-15T08:38:24;18.20;96.90
2477;DHT22;1249;51.270;6.756;2023-04-15T08:40:50;18.20;97.10
2477;DHT22;1249;51.270;6.756;2023-04-15T08:43:27;18.40;97.40
2477;DHT22;1249;51.270;6.756;2023-04-15T08:45:54;18.40;97.60
2477;DHT22;1249;51.270;6.756;2023-04-15T08:48:20;18.40;97.80
2477;DHT22;1249;51.270;6.756;2023-04-15T08:50:49;18.40;98.40
2477;DHT22;1249;51.270;6.756;2023-04-15T08:53:15;18.40;98.40
2477;DHT22;1249;51.270;6.756;2023-04-15T08:55:43;18.40;98.40
2477;DHT22;1249;51.270;6.756;2023-04-15T08:58:11;18.50;98.70
2477;DHT22;1249;51.270;6.756;2023-04-15T09:00:38;18.50;99.00
2477;DHT22;1249;51.270;6.756;2023-04-15T09:03:07;18.60;99.50
2477;DHT22;1249;51.270;6.756;2023-04-15T09:05:34;18.60;99.80
2477;DHT22;1249;51.270;6.756;2023-04-15T09:08:00;18.70;99.90
2477;DHT22;1249;51.270;6.756;2023-04-15T09:10:27;18.70;99.90
2477;DHT22;1249;51.270;6.756;2023-04-15T09:12:53;18.90;99.90
2477;DHT22;1249;51.270;6.756;2023-04-15T09:15:19;18.90;99.90
2477;DHT22;1249;51.270;6.756;2023-04-15T09:17:45;18.90;99.90
2477;DHT22;1249;51.270;6.756;2023-04-15T09:20:12;18.90;99.90
2477;DHT22;1249;51.270;6.756;2023-04-15T09:22:39;18.90;99.90
2477;DHT22;1249;51.270;6.756;2023-04-15T09:27:53;19.00;99.90
2477;DHT22;1249;51.270;6.756;2023-04-15T09:30:19;19.10;99.90
2477;DHT22;1249;51.270;6.756;2023-04-15T09:32:53;19.20;99.90
2477;DHT22;1249;51.270;6.756;2023-04-15T09:35:19;19.30;99.90
2477;DHT22;1249;51.270;6.756;2023-04-15T09:37:46;19.40;99.90
2477;DHT22;1249;51.270;6.756;2023-04-15T09:40:12;19.40;99.90
2477;DHT22;1249;51.270;6.756;2023-04-15T09:42:54;19.40;99.90
2477;DHT22;1249;51.270;6.756;2023-04-15T09:45:21;19.50;99.90
2477;DHT22;1249;51.270;6.756;2023-04-15T09:47:46;19.60;99.90
2477;DHT22;1249;51.270;6.756;2023-04-15T09:50:12;19.70;99.90
2477;DHT22;1249;51.270;6.756;2023-04-15T09:52:42;19.90;99.90
2477;DHT22;1249;51.270;6.756;2023-04-15T09:55:08;20.10;99.90
2477;DHT22;1249;51.270;6.756;2023-04-15T09:57:36;20.20;99.90
2477;DHT22;1249;51.270;6.756;2023-04-15T10:00:06;20.20;99.90
2477;DHT22;1249;51.270;6.756;2023-04-15T10:02:33;20.20;99.90
2477;DHT22;1249;51.270;6.756;2023-04-15T10:05:00;20.00;99.90
2477;DHT22;1249;51.270;6.756;2023-04-15T10:07:26;20.00;99.90
2477;DHT22;1249;51.270;6.756;2023-04-15T10:09:52;20.00;99.90
2477;DHT22;1249;51.270;6.756;2023-04-15T10:12:18;20.00;99.90
2477;DHT22;1249;51.270;6.756;2023-04-15T10:14:48;20.10;99.90
2477;DHT22;1249;51.270;6.756;2023-04-15T10:17:17;20.20;99.90
2477;DHT22;1249;51.270;6.756;2023-04-15T10:19:46;20.10;99.90
2477;DHT22;1249;51.270;6.756;2023-04-15T10:22:13;20.00;99.90
2477;DHT22;1249;51.270;6.756;2023-04-15T10:24:39;20.10;99.90
2477;DHT22;1249;51.270;6.756;2023-04-15T10:27:05;20.00;99.90
2477;DHT22;1249;51.270;6.756;2023-04-15T10:29:31;20.10;99.90
2477;DHT22;1249;51.270;6.756;2023-04-15T10:31:58;20.10;99.90
2477;DHT22;1249;51.270;6.756;2023-04-15T10:34:25;20.10;99.90
2477;DHT22;1249;51.270;6.756;2023-04-15T10:36:54;20.40;99.90
2477;DHT22;1249;51.270;6.756;2023-04-15T10:39:37;20.60;99.90
2477;DHT22;1249;51.270;6.756;2023-04-15T10:42:12;20.70;99.90
2477;DHT22;1249;51.270;6.756;2023-04-15T10:44:47;21.20;99.90
2477;DHT22;1249;51.270;6.756;2023-04-15T10:47:18;21.10;99.80
2477;DHT22;1249;51.270;6.756;2023-04-15T10:49:56;21.20;99.70
2477;DHT22;1249;51.270;6.756;2023-04-15T10:52:24;21.20;99.60
2477;DHT22;1249;51.270;6.756;2023-04-15T10:55:01;21.00;99.90
2477;DHT22;1249;51.270;6.756;2023-04-15T10:57:34;20.90;99.90
2477;DHT22;1249;51.270;6.756;2023-04-15T11:02:52;20.70;99.90
2477;DHT22;1249;51.270;6.756;2023-04-15T11:05:19;20.60;99.90
2477;DHT22;1249;51.270;6.756;2023-04-15T11:12:47;20.20;93.80
2477;DHT22;1249;51.270;6.756;2023-04-15T11:18:09;20.00;92.50
2477;DHT22;1249;51.270;6.756;2023-04-15T11:20:36;19.90;92.00
2477;DHT22;1249;51.270;6.756;2023-04-15T11:23:04;19.90;91.70
2477;DHT22;1249;51.270;6.756;2023-04-15T11:25:31;19.90;91.20
2477;DHT22;1249;51.270;6.756;2023-04-15T11:27:59;20.00;90.70
2477;DHT22;1249;51.270;6.756;2023-04-15T11:30:26;19.90;90.20
2477;DHT22;1249;51.270;6.756;2023-04-15T11:33:20;19.90;90.80
2477;DHT22;1249;51.270;6.756;2023-04-15T11:35:46;19.80;91.10
2477;DHT22;1249;51.270;6.756;2023-04-15T11:38:13;20.00;91.70
2477;DHT22;1249;51.270;6.756;2023-04-15T11:40:39;20.00;92.10
2477;DHT22;1249;51.270;6.756;2023-04-15T11:43:08;20.00;92.40
2477;DHT22;1249;51.270;6.756;2023-04-15T11:45:36;20.00;92.60
2477;DHT22;1249;51.270;6.756;2023-04-15T11:48:06;19.90;93.30
2477;DHT22;1249;51.270;6.756;2023-04-15T11:50:32;19.90;93.70
2477;DHT22;1249;51.270;6.756;2023-04-15T11:52:59;19.90;94.00
2477;DHT22;1249;51.270;6.756;2023-04-15T11:55:26;19.90;94.50
2477;DHT22;1249;51.270;6.756;2023-04-15T11:58:11;20.00;95.00
2477;DHT22;1249;51.270;6.756;2023-04-15T12:00:38;19.90;94.90
2477;DHT22;1249;51.270;6.756;2023-04-15T12:03:23;19.90;95.10
2477;DHT22;1249;51.270;6.756;2023-04-15T12:06:23;19.70;95.30
2477;DHT22;1249;51.270;6.756;2023-04-15T12:11:47;19.60;95.70
2477;DHT22;1249;51.270;6.756;2023-04-15T12:16:51;19.50;96.90
2477;DHT22;1249;51.270;6.756;2023-04-15T12:19:43;19.50;97.90
2477;DHT22;1249;51.270;6.756;2023-04-15T12:22:14;19.50;98.60
2477;DHT22;1249;51.270;6.756;2023-04-15T12:24:41;19.50;99.90
2477;DHT22;1249;51.270;6.756;2023-04-15T12:27:14;19.50;99.90
2477;DHT22;1249;51.270;6.756;2023-04-15T12:29:41;19.50;99.90
2477;DHT22;1249;51.270;6.756;2023-04-15T12:32:12;19.60;99.90
2477;DHT22;1249;51.270;6.756;2023-04-15T12:34:40;19.60;99.90
2477;DHT22;1249;51.270;6.756;2023-04-15T12:37:07;19.50;99.90
2477;DHT22;1249;51.270;6.756;2023-04-15T12:39:36;19.50;99.90
2477;DHT22;1249;51.270;6.756;2023-04-15T12:42:03;19.50;99.90
2477;DHT22;1249;51.270;6.756;2023-04-15T12:44:29;19.40;99.90
2477;DHT22;1249;51.270;6.756;2023-04-15T12:46:56;19.50;99.90
2477;DHT22;1249;51.270;6.756;2023-04-15T12:49:23;19.40;99.90
2477;DHT22;1249;51.270;6.756;2023-04-15T12:51:49;19.30;99.90
2477;DHT22;1249;51.270;6.756;2023-04-15T12:54:18;19.30;99.90
2477;DHT22;1249;51.270;6.756;2023-04-15T12:56:45;19.30;99.90
2477;DHT22;1249;51.270;6.756;2023-04-15T12:59:11;19.20;99.90
2477;DHT22;1249;51.270;6.756;2023-04-15T13:01:38;19.20;99.90
2477;DHT22;1249;51.270;6.756;2023-04-15T13:04:04;19.30;99.90
2477;DHT22;1249;51.270;6.756;2023-04-15T13:06:30;19.30;99.90
2477;DHT22;1249;51.270;6.756;2023-04-15T13:08:58;19.30;99.90
2477;DHT22;1249;51.270;6.756;2023-04-15T13:11:24;19.30;99.90
2477;DHT22;1249;51.270;6.756;2023-04-15T13:13:50;19.20;99.90
2477;DHT22;1249;51.270;6.756;2023-04-15T13:16:17;19.20;99.90
2477;DHT22;1249;51.270;6.756;2023-04-15T13:18:43;19.10;99.90
2477;DHT22;1249;51.270;6.756;2023-04-15T13:21:11;19.10;99.90
2477;DHT22;1249;51.270;6.756;2023-04-15T13:23:36;19.10;99.90
2477;DHT22;1249;51.270;6.756;2023-04-15T13:26:02;19.10;99.90
2477;DHT22;1249;51.270;6.756;2023-04-15T13:28:28;19.10;99.90
2477;DHT22;1249;51.270;6.756;2023-04-15T13:30:53;19.10;99.90
2477;DHT22;1249;51.270;6.756;2023-04-15T13:33:19;19.10;99.90
2477;DHT22;1249;51.270;6.756;2023-04-15T13:35:45;19.00;99.90
2477;DHT22;1249;51.270;6.756;2023-04-15T13:38:11;19.00;99.90
2477;DHT22;1249;51.270;6.756;2023-04-15T13:40:36;19.00;99.90
2477;DHT22;1249;51.270;6.756;2023-04-15T13:43:02;18.90;99.90
2477;DHT22;1249;51.270;6.756;2023-04-15T13:45:28;18.90;99.90
2477;DHT22;1249;51.270;6.756;2023-04-15T13:47:55;18.80;99.90
2477;DHT22;1249;51.270;6.756;2023-04-15T13:50:21;18.80;99.90
2477;DHT22;1249;51.270;6.756;2023-04-15T13:52:47;18.90;99.90
2477;DHT22;1249;51.270;6.756;2023-04-15T13:55:12;18.90;99.90
2477;DHT22;1249;51.270;6.756;2023-04-15T13:57:38;18.90;99.90
2477;DHT22;1249;51.270;6.756;2023-04-15T14:00:05;18.90;99.90
2477;DHT22;1249;51.270;6.756;2023-04-15T14:02:32;18.90;99.90
2477;DHT22;1249;51.270;6.756;2023-04-15T14:04:57;19.00;99.90
2477;DHT22;1249;51.270;6.756;2023-04-15T14:07:23;18.90;99.90
2477;DHT22;1249;51.270;6.756;2023-04-15T14:09:49;18.90;99.90
2477;DHT22;1249;51.270;6.756;2023-04-15T14:12:14;18.90;99.90
2477;DHT22;1249;51.270;6.756;2023-04-15T14:14:40;18.90;99.90
2477;DHT22;1249;51.270;6.756;2023-04-15T14:17:06;18.90;99.90
2477;DHT22;1249;51.270;6.756;2023-04-15T14:19:33;19.00;99.90
2477;DHT22;1249;51.270;6.756;2023-04-15T14:21:59;19.00;99.90
2477;DHT22;1249;51.270;6.756;2023-04-15T14:24:25;19.10;99.90
2477;DHT22;1249;51.270;6.756;2023-04-15T14:26:50;19.10;99.90
2477;DHT22;1249;51.270;6.756;2023-04-15T14:29:16;19.10;99.90
2477;DHT22;1249;51.270;6.756;2023-04-15T14:31:42;19.00;99.90
2477;DHT22;1249;51.270;6.756;2023-04-15T14:34:09;19.00;99.90
2477;DHT22;1249;51.270;6.756;2023-04-15T14:36:35;18.90;99.90
2477;DHT22;1249;51.270;6.756;2023-04-15T14:39:01;18.90;99.90
2477;DHT22;1249;51.270;6.756;2023-04-15T14:41:28;18.90;99.90
2477;DHT22;1249;51.270;6.756;2023-04-15T14:43:54;18.90;99.90
2477;DHT22;1249;51.270;6.756;2023-04-15T14:46:19;18.90;99.90
2477;DHT22;1249;51.270;6.756;2023-04-15T14:48:45;18.90;99.90
2477;DHT22;1249;51.270;6.756;2023-04-15T14:51:11;18.90;99.90
2477;DHT22;1249;51.270;6.756;2023-04-15T14:53:36;19.00;99.90
2477;DHT22;1249;51.270;6.756;2023-04-15T14:56:02;18.90;99.90
2477;DHT22;1249;51.270;6.756;2023-04-15T14:58:27;19.00;99.90
2477;DHT22;1249;51.270;6.756;2023-04-15T15:00:53;19.00;99.90
2477;DHT22;1249;51.270;6.756;2023-04-15T15:03:19;19.00;99.90
2477;DHT22;1249;51.270;6.756;2023-04-15T15:05:45;18.90;99.90
2477;DHT22;1249;51.270;6.756;2023-04-15T15:08:12;18.90;99.90
2477;DHT22;1249;51.270;6.756;2023-04-15T15:10:38;18.90;99.90
2477;DHT22;1249;51.270;6.756;2023-04-15T15:13:08;18.90;99.90
2477;DHT22;1249;51.270;6.756;2023-04-15T15:15:36;18.90;99.90
2477;DHT22;1249;51.270;6.756;2023-04-15T15:18:02;18.80;99.90
2477;DHT22;1249;51.270;6.756;2023-04-15T15:20:28;18.80;99.90
2477;DHT22;1249;51.270;6.756;2023-04-15T15:22:54;18.70;99.90
2477;DHT22;1249;51.270;6.756;2023-04-15T15:25:20;18.80;99.90
2477;DHT22;1249;51.270;6.756;2023-04-15T15:27:46;18.90;99.90
2477;DHT22;1249;51.270;6.756;2023-04-15T15:30:11;18.80;99.90
2477;DHT22;1249;51.270;6.756;2023-04-15T15:32:38;18.80;99.90
2477;DHT22;1249;51.270;6.756;2023-04-15T15:35:05;18.80;99.90
2477;DHT22;1249;51.270;6.756;2023-04-15T15:37:30;18.80;99.90
2477;DHT22;1249;51.270;6.756;2023-04-15T15:39:56;18.70;99.90
2477;DHT22;1249;51.270;6.756;2023-04-15T15:42:22;18.60;99.90
2477;DHT22;1249;51.270;6.756;2023-04-15T15:47:24;18.30;99.90
2477;DHT22;1249;51.270;6.756;2023-04-15T15:49:53;18.20;99.90
2477;DHT22;1249;51.270;6.756;2023-04-15T15:52:19;18.10;99.90
2477;DHT22;1249;51.270;6.756;2023-04-15T15:54:45;18.00;99.90
2477;DHT22;1249;51.270;6.756;2023-04-15T15:57:10;18.00;99.90
2477;DHT22;1249;51.270;6.756;2023-04-15T15:59:36;17.90;99.90
2477;DHT22;1249;51.270;6.756;2023-04-15T16:02:07;17.90;99.90
2477;DHT22;1249;51.270;6.756;2023-04-15T16:04:33;17.90;99.90
2477;DHT22;1249;51.270;6.756;2023-04-15T16:06:59;17.80;99.90
2477;DHT22;1249;51.270;6.756;2023-04-15T16:09:25;17.80;99.90
2477;DHT22;1249;51.270;6.756;2023-04-15T16:11:51;17.90;99.90
2477;DHT22;1249;51.270;6.756;2023-04-15T16:14:16;17.80;98.80
2477;DHT22;1249;51.270;6.756;2023-04-15T16:16:42;17.80;99.20
2477;DHT22;1249;51.270;6.756;2023-04-15T16:19:07;17.70;99.50
2477;DHT22;1249;51.270;6.756;2023-04-15T16:21:33;17.70;99.90